KDUX

Details ICAO KDUX
Name MOORE CO
Region United States
Timezone America/Chicago (UTC-5.0)
Plans Departing 4
Arriving 1
Stats Elevation 3,705 ft / 1,129 m (AMSL)
Location 35.858268° -102.012996°
Runways 2
Magnetic Variation 6.316° E
Sunrise 2018-05-25 11:37:28 UTC / 2018-05-25 06:37:28 Local
Sunset 2018-05-26 01:55:26 UTC / 2018-05-25 20:55:26 Local
Advertisement - Login to hide

Runways

ID Width Length Bearing (true) Bearing (mag) Surface Threshold Offset Overrun Length
01 75 ft / 23 m 5,482 ft / 1,671 m 23.05° 16.73° Asphalt 0 ft / 0 m 0 ft / 0 m
14 60 ft / 18 m 3,103 ft / 946 m 151.67° 145.35° Asphalt 0 ft / 0 m 0 ft / 0 m
19 75 ft / 23 m 5,482 ft / 1,671 m 203.06° 196.74° Asphalt 0 ft / 0 m 0 ft / 0 m
32 60 ft / 18 m 3,103 ft / 946 m 331.67° 325.35° Asphalt 0 ft / 0 m 0 ft / 0 m

Map

Weather


0- 5 10 15 20 25 30 35+ Temperature / ° C

Clouds and Precipitation
Forecast for 2018-05-26 00:00 UTC. Updated 6 hours ago

Ground ~20,000 ft ~40,000 ft Winds

METAR

KDUX 260455Z AUTO 10005KT 10SM CLR 22/13 A2995 RMK AO2 T02150130

TAF

Not found

Frequencies

Recorded 118.07 MHz AWOS 3
Unicom 122.80 MHz CTAF/UNICOM
Warning: Do not use this data for real-world aviation or navigation. No guarantee of current accuracy is given.